sensor_id;sensor_type;location;lat;lon;timestamp;pressure;altitude;pressure_sealevel;temperature;humidity
9905;BME280;4991;43.566;27.820;2023-03-22T00:02:00;98671.94;;;7.53;100.00
9905;BME280;4991;43.566;27.820;2023-03-22T00:04:26;98672.94;;;7.62;100.00
9905;BME280;4991;43.566;27.820;2023-03-22T00:06:52;98673.91;;;7.47;100.00
9905;BME280;4991;43.566;27.820;2023-03-22T00:09:18;98671.97;;;7.48;100.00
9905;BME280;4991;43.566;27.820;2023-03-22T00:11:44;98669.91;;;7.40;100.00
9905;BME280;4991;43.566;27.820;2023-03-22T00:14:10;98657.66;;;7.47;100.00
9905;BME280;4991;43.566;27.820;2023-03-22T00:16:36;98663.84;;;7.48;100.00
9905;BME280;4991;43.566;27.820;2023-03-22T00:19:01;98654.78;;;7.34;100.00
9905;BME280;4991;43.566;27.820;2023-03-22T00:21:27;98656.44;;;7.30;100.00
9905;BME280;4991;43.566;27.820;2023-03-22T00:23:52;98653.41;;;7.36;100.00
9905;BME280;4991;43.566;27.820;2023-03-22T00:26:18;98656.66;;;7.62;100.00
9905;BME280;4991;43.566;27.820;2023-03-22T00:28:44;98653.31;;;7.70;100.00
9905;BME280;4991;43.566;27.820;2023-03-22T00:31:09;98634.75;;;7.58;100.00
9905;BME280;4991;43.566;27.820;2023-03-22T00:33:36;98643.56;;;7.45;100.00
9905;BME280;4991;43.566;27.820;2023-03-22T00:36:04;98636.59;;;7.39;100.00
9905;BME280;4991;43.566;27.820;2023-03-22T00:38:30;98643.69;;;7.35;100.00
9905;BME280;4991;43.566;27.820;2023-03-22T00:41:18;98640.44;;;7.33;100.00
9905;BME280;4991;43.566;27.820;2023-03-22T00:43:45;98630.41;;;7.34;100.00
9905;BME280;4991;43.566;27.820;2023-03-22T00:46:12;98637.16;;;7.36;100.00
9905;BME280;4991;43.566;27.820;2023-03-22T00:48:38;98628.53;;;7.34;100.00
9905;BME280;4991;43.566;27.820;2023-03-22T00:51:04;98588.28;;;7.23;100.00
9905;BME280;4991;43.566;27.820;2023-03-22T00:53:30;98632.03;;;7.35;100.00
9905;BME280;4991;43.566;27.820;2023-03-22T00:55:57;98628.53;;;7.34;100.00
9905;BME280;4991;43.566;27.820;2023-03-22T00:58:23;98606.09;;;7.29;100.00
9905;BME280;4991;43.566;27.820;2023-03-22T01:00:50;98627.06;;;7.42;100.00
9905;BME280;4991;43.566;27.820;2023-03-22T01:03:16;98618.44;;;7.40;100.00
9905;BME280;4991;43.566;27.820;2023-03-22T01:05:44;98623.16;;;7.29;100.00
9905;BME280;4991;43.566;27.820;2023-03-22T01:08:10;98620.06;;;7.41;100.00
9905;BME280;4991;43.566;27.820;2023-03-22T01:10:38;98621.03;;;7.50;100.00
9905;BME280;4991;43.566;27.820;2023-03-22T01:13:04;98623.16;;;7.53;100.00
9905;BME280;4991;43.566;27.820;2023-03-22T01:15:30;98632.16;;;7.48;100.00
9905;BME280;4991;43.566;27.820;2023-03-22T01:17:56;98611.34;;;7.44;100.00
9905;BME280;4991;43.566;27.820;2023-03-22T01:20:22;98608.63;;;7.44;100.00
9905;BME280;4991;43.566;27.820;2023-03-22T01:22:48;98618.72;;;7.38;100.00
9905;BME280;4991;43.566;27.820;2023-03-22T01:25:13;98614.75;;;7.31;100.00
9905;BME280;4991;43.566;27.820;2023-03-22T01:27:39;98606.44;;;7.22;100.00
9905;BME280;4991;43.566;27.820;2023-03-22T01:30:06;98616.94;;;7.29;100.00
9905;BME280;4991;43.566;27.820;2023-03-22T01:32:32;98629.47;;;7.20;100.00
9905;BME280;4991;43.566;27.820;2023-03-22T01:34:58;98631.56;;;7.28;100.00
9905;BME280;4991;43.566;27.820;2023-03-22T01:37:24;98628.81;;;7.33;100.00
9905;BME280;4991;43.566;27.820;2023-03-22T01:39:55;98633.94;;;7.34;100.00
9905;BME280;4991;43.566;27.820;2023-03-22T01:42:22;98643.63;;;7.40;100.00
9905;BME280;4991;43.566;27.820;2023-03-22T01:47:50;98626.38;;;7.31;100.00
9905;BME280;4991;43.566;27.820;2023-03-22T01:50:18;98625.06;;;7.29;100.00
9905;BME280;4991;43.566;27.820;2023-03-22T01:52:45;98623.66;;;7.31;100.00
9905;BME280;4991;43.566;27.820;2023-03-22T01:55:11;98625.00;;;7.34;100.00
9905;BME280;4991;43.566;27.820;2023-03-22T01:57:38;98615.31;;;7.28;100.00
9905;BME280;4991;43.566;27.820;2023-03-22T02:00:07;98609.91;;;7.28;100.00
9905;BME280;4991;43.566;27.820;2023-03-22T02:02:36;98618.13;;;7.18;100.00
9905;BME280;4991;43.566;27.820;2023-03-22T02:05:02;98617.69;;;7.06;100.00
9905;BME280;4991;43.566;27.820;2023-03-22T02:07:28;98616.56;;;7.12;100.00
9905;BME280;4991;43.566;27.820;2023-03-22T02:09:56;98624.72;;;7.07;100.00
9905;BME280;4991;43.566;27.820;2023-03-22T02:18:15;98635.47;;;7.17;100.00
9905;BME280;4991;43.566;27.820;2023-03-22T02:21:04;98635.22;;;7.13;100.00
9905;BME280;4991;43.566;27.820;2023-03-22T02:48:04;98652.19;;;7.24;100.00
9905;BME280;4991;43.566;27.820;2023-03-22T02:53:23;98665.63;;;7.34;100.00
9905;BME280;4991;43.566;27.820;2023-03-22T02:56:03;98667.84;;;7.27;100.00
9905;BME280;4991;43.566;27.820;2023-03-22T02:58:50;98665.09;;;7.32;100.00
9905;BME280;4991;43.566;27.820;2023-03-22T03:01:30;98676.22;;;7.30;100.00
9905;BME280;4991;43.566;27.820;2023-03-22T03:04:02;98670.00;;;7.30;100.00
9905;BME280;4991;43.566;27.820;2023-03-22T03:06:32;98674.28;;;7.36;100.00
9905;BME280;4991;43.566;27.820;2023-03-22T03:09:00;98660.69;;;7.41;100.00
9905;BME280;4991;43.566;27.820;2023-03-22T03:11:29;98672.50;;;7.50;100.00
9905;BME280;4991;43.566;27.820;2023-03-22T03:13:55;98673.84;;;7.52;100.00
9905;BME280;4991;43.566;27.820;2023-03-22T03:16:24;98668.78;;;7.46;100.00
9905;BME280;4991;43.566;27.820;2023-03-22T03:19:02;98664.66;;;7.48;100.00
9905;BME280;4991;43.566;27.820;2023-03-22T03:27:14;98669.63;;;7.13;100.00
9905;BME280;4991;43.566;27.820;2023-03-22T03:29:54;98668.63;;;7.04;100.00
9905;BME280;4991;43.566;27.820;2023-03-22T03:32:31;98670.66;;;7.17;100.00
9905;BME280;4991;43.566;27.820;2023-03-22T03:35:10;98651.75;;;7.12;100.00
9905;BME280;4991;43.566;27.820;2023-03-22T03:37:52;98660.03;;;7.25;100.00
9905;BME280;4991;43.566;27.820;2023-03-22T03:40:30;98675.50;;;7.20;100.00
9905;BME280;4991;43.566;27.820;2023-03-22T03:43:00;98669.59;;;7.18;100.00
9905;BME280;4991;43.566;27.820;2023-03-22T03:45:27;98668.19;;;7.20;100.00
9905;BME280;4991;43.566;27.820;2023-03-22T03:48:00;98660.19;;;7.05;100.00
9905;BME280;4991;43.566;27.820;2023-03-22T03:50:27;98670.41;;;7.13;100.00
9905;BME280;4991;43.566;27.820;2023-03-22T03:52:54;98668.78;;;7.17;100.00
9905;BME280;4991;43.566;27.820;2023-03-22T03:55:21;98666.50;;;7.29;100.00
9905;BME280;4991;43.566;27.820;2023-03-22T03:57:47;98676.13;;;7.40;100.00
9905;BME280;4991;43.566;27.820;2023-03-22T04:00:13;98663.22;;;7.32;100.00
9905;BME280;4991;43.566;27.820;2023-03-22T04:02:42;98681.13;;;7.28;100.00
9905;BME280;4991;43.566;27.820;2023-03-22T04:05:09;98682.50;;;7.26;100.00
9905;BME280;4991;43.566;27.820;2023-03-22T04:07:35;98668.44;;;7.24;100.00
9905;BME280;4991;43.566;27.820;2023-03-22T04:10:01;98685.16;;;7.31;100.00
9905;BME280;4991;43.566;27.820;2023-03-22T04:12:27;98679.28;;;7.24;100.00
9905;BME280;4991;43.566;27.820;2023-03-22T04:14:53;98671.00;;;7.39;100.00
9905;BME280;4991;43.566;27.820;2023-03-22T04:17:20;98684.69;;;7.52;100.00
9905;BME280;4991;43.566;27.820;2023-03-22T04:19:46;98681.88;;;7.34;100.00
9905;BME280;4991;43.566;27.820;2023-03-22T04:22:12;98682.69;;;7.34;100.00
9905;BME280;4991;43.566;27.820;2023-03-22T04:24:42;98691.56;;;7.40;100.00
9905;BME280;4991;43.566;27.820;2023-03-22T04:27:08;98681.88;;;7.34;100.00
9905;BME280;4991;43.566;27.820;2023-03-22T04:29:34;98689.97;;;7.39;100.00
9905;BME280;4991;43.566;27.820;2023-03-22T04:32:03;98684.06;;;7.32;100.00
9905;BME280;4991;43.566;27.820;2023-03-22T04:34:29;98694.81;;;7.42;100.00
9905;BME280;4991;43.566;27.820;2023-03-22T04:36:56;98704.31;;;7.39;100.00
9905;BME280;4991;43.566;27.820;2023-03-22T04:39:22;98704.03;;;7.41;100.00
9905;BME280;4991;43.566;27.820;2023-03-22T04:41:47;98696.25;;;7.34;100.00
9905;BME280;4991;43.566;27.820;2023-03-22T04:44:13;98695.09;;;7.40;100.00
9905;BME280;4991;43.566;27.820;2023-03-22T04:46:38;98700.75;;;7.44;100.00
9905;BME280;4991;43.566;27.820;2023-03-22T04:49:05;98702.69;;;7.38;100.00
9905;BME280;4991;43.566;27.820;2023-03-22T04:51:30;98702.75;;;7.33;100.00
9905;BME280;4991;43.566;27.820;2023-03-22T04:53:57;98716.09;;;7.25;100.00
9905;BME280;4991;43.566;27.820;2023-03-22T04:56:23;98715.59;;;7.23;100.00
9905;BME280;4991;43.566;27.820;2023-03-22T04:58:48;98721.16;;;7.31;100.00
9905;BME280;4991;43.566;27.820;2023-03-22T05:01:16;98726.00;;;7.39;100.00
9905;BME280;4991;43.566;27.820;2023-03-22T05:03:43;98730.94;;;7.32;100.00
9905;BME280;4991;43.566;27.820;2023-03-22T05:06:10;98729.63;;;7.25;100.00
9905;BME280;4991;43.566;27.820;2023-03-22T05:08:36;98738.28;;;7.27;100.00
9905;BME280;4991;43.566;27.820;2023-03-22T05:11:08;98733.63;;;7.32;100.00
9905;BME280;4991;43.566;27.820;2023-03-22T05:13:35;98739.34;;;7.31;100.00
9905;BME280;4991;43.566;27.820;2023-03-22T05:16:02;98738.56;;;7.25;100.00
9905;BME280;4991;43.566;27.820;2023-03-22T05:18:28;98746.13;;;7.28;100.00
9905;BME280;4991;43.566;27.820;2023-03-22T05:20:55;98739.63;;;7.29;100.00
9905;BME280;4991;43.566;27.820;2023-03-22T05:23:22;98741.53;;;7.29;100.00
9905;BME280;4991;43.566;27.820;2023-03-22T05:25:49;98741.81;;;7.27;100.00
9905;BME280;4991;43.566;27.820;2023-03-22T05:28:16;98742.41;;;7.19;100.00
9905;BME280;4991;43.566;27.820;2023-03-22T05:30:44;98738.00;;;7.28;100.00
9905;BME280;4991;43.566;27.820;2023-03-22T05:33:09;98725.22;;;7.34;100.00
9905;BME280;4991;43.566;27.820;2023-03-22T05:35:37;98742.25;;;7.39;100.00
9905;BME280;4991;43.566;27.820;2023-03-22T05:38:04;98753.84;;;7.45;100.00
9905;BME280;4991;43.566;27.820;2023-03-22T05:40:30;98746.84;;;7.39;100.00
9905;BME280;4991;43.566;27.820;2023-03-22T05:42:56;98749.72;;;7.52;100.00
9905;BME280;4991;43.566;27.820;2023-03-22T05:45:21;98754.81;;;7.59;100.00
9905;BME280;4991;43.566;27.820;2023-03-22T05:47:48;98754.81;;;7.59;100.00
9905;BME280;4991;43.566;27.820;2023-03-22T05:50:16;98757.59;;;7.49;100.00
9905;BME280;4991;43.566;27.820;2023-03-22T05:52:43;98754.31;;;7.52;100.00
9905;BME280;4991;43.566;27.820;2023-03-22T05:55:10;98750.22;;;7.54;100.00
9905;BME280;4991;43.566;27.820;2023-03-22T05:57:42;98754.75;;;7.64;100.00
9905;BME280;4991;43.566;27.820;2023-03-22T06:00:10;98755.34;;;7.61;100.00
9905;BME280;4991;43.566;27.820;2023-03-22T06:02:38;98750.13;;;7.64;100.00
9905;BME280;4991;43.566;27.820;2023-03-22T06:05:05;98735.41;;;7.47;100.00
9905;BME280;4991;43.566;27.820;2023-03-22T06:07:31;98766.03;;;7.47;100.00
9905;BME280;4991;43.566;27.820;2023-03-22T06:09:57;98766.44;;;7.59;100.00
9905;BME280;4991;43.566;27.820;2023-03-22T06:12:23;98769.56;;;7.71;100.00
9905;BME280;4991;43.566;27.820;2023-03-22T06:14:50;98773.81;;;7.54;100.00
9905;BME280;4991;43.566;27.820;2023-03-22T06:17:16;98772.66;;;7.60;100.00
9905;BME280;4991;43.566;27.820;2023-03-22T06:19:42;98766.44;;;7.59;100.00
9905;BME280;4991;43.566;27.820;2023-03-22T06:22:08;98775.28;;;7.70;100.00
9905;BME280;4991;43.566;27.820;2023-03-22T06:24:33;98765.66;;;7.59;100.00
9905;BME280;4991;43.566;27.820;2023-03-22T06:26:59;98769.97;;;7.60;100.00
9905;BME280;4991;43.566;27.820;2023-03-22T06:29:25;98777.41;;;7.73;100.00
9905;BME280;4991;43.566;27.820;2023-03-22T06:31:51;98776.34;;;7.74;100.00
9905;BME280;4991;43.566;27.820;2023-03-22T06:34:16;98773.28;;;7.80;100.00
9905;BME280;4991;43.566;27.820;2023-03-22T06:36:42;98784.72;;;7.77;100.00
9905;BME280;4991;43.566;27.820;2023-03-22T06:39:08;98789.59;;;7.75;100.00
9905;BME280;4991;43.566;27.820;2023-03-22T06:41:34;98775.03;;;7.66;100.00
9905;BME280;4991;43.566;27.820;2023-03-22T06:43:59;98792.84;;;7.77;100.00
9905;BME280;4991;43.566;27.820;2023-03-22T06:46:26;98792.06;;;7.72;100.00
9905;BME280;4991;43.566;27.820;2023-03-22T06:48:51;98796.44;;;7.68;100.00
9905;BME280;4991;43.566;27.820;2023-03-22T06:51:17;98802.44;;;7.65;100.00
9905;BME280;4991;43.566;27.820;2023-03-22T06:53:43;98806.44;;;7.72;100.00
9905;BME280;4991;43.566;27.820;2023-03-22T06:56:09;98805.63;;;7.72;100.00
9905;BME280;4991;43.566;27.820;2023-03-22T06:58:35;98803.59;;;7.88;100.00
9905;BME280;4991;43.566;27.820;2023-03-22T07:01:00;98811.59;;;7.98;100.00
9905;BME280;4991;43.566;27.820;2023-03-22T07:03:26;98811.34;;;7.99;100.00
9905;BME280;4991;43.566;27.820;2023-03-22T07:05:51;98809.22;;;7.91;100.00
9905;BME280;4991;43.566;27.820;2023-03-22T07:08:17;98813.38;;;7.83;100.00
9905;BME280;4991;43.566;27.820;2023-03-22T07:10:48;98817.41;;;7.86;100.00
9905;BME280;4991;43.566;27.820;2023-03-22T07:13:13;98818.53;;;7.85;100.00
9905;BME280;4991;43.566;27.820;2023-03-22T07:15:39;98825.28;;;7.88;100.00
9905;BME280;4991;43.566;27.820;2023-03-22T07:18:06;98822.97;;;8.00;100.00
9905;BME280;4991;43.566;27.820;2023-03-22T07:20:33;98818.41;;;7.95;100.00
9905;BME280;4991;43.566;27.820;2023-03-22T07:23:01;98829.75;;;8.02;100.00
9905;BME280;4991;43.566;27.820;2023-03-22T07:25:27;98827.44;;;8.14;100.00
9905;BME280;4991;43.566;27.820;2023-03-22T07:27:52;98829.88;;;8.16;100.00
9905;BME280;4991;43.566;27.820;2023-03-22T07:30:18;98825.31;;;8.11;100.00
9905;BME280;4991;43.566;27.820;2023-03-22T07:32:44;98824.72;;;8.14;100.00
9905;BME280;4991;43.566;27.820;2023-03-22T07:35:10;98823.94;;;8.14;100.00
9905;BME280;4991;43.566;27.820;2023-03-22T07:37:35;98827.56;;;8.04;100.00
9905;BME280;4991;43.566;27.820;2023-03-22T07:40:01;98829.94;;;8.11;100.00
9905;BME280;4991;43.566;27.820;2023-03-22T07:42:29;98835.81;;;8.18;100.00
9905;BME280;4991;43.566;27.820;2023-03-22T07:44:55;98830.09;;;8.19;100.00
9905;BME280;4991;43.566;27.820;2023-03-22T07:47:21;98833.97;;;8.13;100.00
9905;BME280;4991;43.566;27.820;2023-03-22T07:49:47;98832.03;;;8.19;100.00
9905;BME280;4991;43.566;27.820;2023-03-22T07:52:13;98844.75;;;8.47;100.00
9905;BME280;4991;43.566;27.820;2023-03-22T07:54:38;98839.09;;;8.43;100.00
9905;BME280;4991;43.566;27.820;2023-03-22T07:57:04;98846.47;;;8.38;100.00
9905;BME280;4991;43.566;27.820;2023-03-22T07:59:31;98836.81;;;8.55;100.00
9905;BME280;4991;43.566;27.820;2023-03-22T08:01:57;98837.41;;;8.47;100.00
9905;BME280;4991;43.566;27.820;2023-03-22T08:04:22;98846.84;;;8.55;100.00
9905;BME280;4991;43.566;27.820;2023-03-22T08:06:49;98843.47;;;8.63;100.00
9905;BME280;4991;43.566;27.820;2023-03-22T08:09:16;98836.78;;;8.32;100.00
9905;BME280;4991;43.566;27.820;2023-03-22T08:11:41;98845.78;;;8.51;100.00
9905;BME280;4991;43.566;27.820;2023-03-22T08:14:08;98851.50;;;8.49;100.00
9905;BME280;4991;43.566;27.820;2023-03-22T08:16:34;98843.84;;;8.56;100.00
9905;BME280;4991;43.566;27.820;2023-03-22T08:18:59;98839.50;;;8.55;100.00
9905;BME280;4991;43.566;27.820;2023-03-22T08:21:26;98847.81;;;8.64;100.00
9905;BME280;4991;43.566;27.820;2023-03-22T08:23:52;98846.59;;;8.75;100.00
9905;BME280;4991;43.566;27.820;2023-03-22T08:26:17;98837.13;;;8.72;100.00
9905;BME280;4991;43.566;27.820;2023-03-22T08:28:43;98843.09;;;8.93;100.00
9905;BME280;4991;43.566;27.820;2023-03-22T08:31:12;98839.28;;;8.94;100.00
9905;BME280;4991;43.566;27.820;2023-03-22T08:33:38;98842.06;;;8.89;100.00
9905;BME280;4991;43.566;27.820;2023-03-22T08:36:08;98837.75;;;8.88;100.00
9905;BME280;4991;43.566;27.820;2023-03-22T08:38:34;98833.72;;;9.04;100.00
9905;BME280;4991;43.566;27.820;2023-03-22T08:41:00;98831.81;;;9.04;100.00
9905;BME280;4991;43.566;27.820;2023-03-22T08:43:27;98832.75;;;8.95;100.00
9905;BME280;4991;43.566;27.820;2023-03-22T08:45:53;98831.31;;;9.21;100.00
9905;BME280;4991;43.566;27.820;2023-03-22T08:48:20;98845.41;;;9.42;100.00
9905;BME280;4991;43.566;27.820;2023-03-22T08:50:46;98837.19;;;9.28;100.00
9905;BME280;4991;43.566;27.820;2023-03-22T08:53:11;98852.91;;;9.50;100.00
9905;BME280;4991;43.566;27.820;2023-03-22T08:55:39;98845.34;;;9.79;100.00
9905;BME280;4991;43.566;27.820;2023-03-22T08:58:13;98843.75;;;9.59;100.00
9905;BME280;4991;43.566;27.820;2023-03-22T09:00:39;98835.97;;;9.53;100.00
9905;BME280;4991;43.566;27.820;2023-03-22T09:03:05;98849.34;;;9.68;100.00
9905;BME280;4991;43.566;27.820;2023-03-22T09:05:31;98839.47;;;9.72;100.00
9905;BME280;4991;43.566;27.820;2023-03-22T09:07:57;98841.69;;;9.70;100.00
9905;BME280;4991;43.566;27.820;2023-03-22T09:10:22;98857.47;;;9.86;100.00
9905;BME280;4991;43.566;27.820;2023-03-22T09:12:48;98852.75;;;9.73;100.00
9905;BME280;4991;43.566;27.820;2023-03-22T09:15:14;98846.91;;;9.66;100.00
9905;BME280;4991;43.566;27.820;2023-03-22T09:17:39;98861.97;;;9.77;100.00
9905;BME280;4991;43.566;27.820;2023-03-22T09:20:06;98861.44;;;9.75;100.00
9905;BME280;4991;43.566;27.820;2023-03-22T09:22:31;98859.69;;;9.84;100.00
9905;BME280;4991;43.566;27.820;2023-03-22T09:24:57;98860.66;;;9.75;100.00
9905;BME280;4991;43.566;27.820;2023-03-22T09:27:22;98859.25;;;9.77;100.00
9905;BME280;4991;43.566;27.820;2023-03-22T09:29:48;98866.59;;;9.77;100.00
9905;BME280;4991;43.566;27.820;2023-03-22T09:32:16;98862.78;;;9.78;100.00
9905;BME280;4991;43.566;27.820;2023-03-22T09:34:41;98870.94;;;9.78;100.00
9905;BME280;4991;43.566;27.820;2023-03-22T09:37:07;98870.41;;;9.76;100.00
9905;BME280;4991;43.566;27.820;2023-03-22T09:39:33;98861.06;;;9.82;100.00
9905;BME280;4991;43.566;27.820;2023-03-22T09:42:05;98878.06;;;9.74;100.00
9905;BME280;4991;43.566;27.820;2023-03-22T09:44:40;98873.75;;;9.73;100.00
9905;BME280;4991;43.566;27.820;2023-03-22T09:47:14;98878.06;;;9.55;100.00
9905;BME280;4991;43.566;27.820;2023-03-22T09:49:44;98870.72;;;9.56;100.00
9905;BME280;4991;43.566;27.820;2023-03-22T09:52:14;98875.00;;;9.43;100.00
9905;BME280;4991;43.566;27.820;2023-03-22T09:54:43;98875.69;;;9.35;100.00
9905;BME280;4991;43.566;27.820;2023-03-22T09:57:31;98875.06;;;9.20;100.00
9905;BME280;4991;43.566;27.820;2023-03-22T10:00:09;98871.69;;;9.28;100.00
9905;BME280;4991;43.566;27.820;2023-03-22T10:08:07;98866.09;;;9.19;100.00
9905;BME280;4991;43.566;27.820;2023-03-22T10:10:36;98870.53;;;9.15;100.00
9905;BME280;4991;43.566;27.820;2023-03-22T10:13:31;98870.44;;;9.01;100.00
9905;BME280;4991;43.566;27.820;2023-03-22T10:16:02;98875.63;;;8.98;100.00
9905;BME280;4991;43.566;27.820;2023-03-22T10:18:39;98877.69;;;9.06;100.00
9905;BME280;4991;43.566;27.820;2023-03-22T10:21:12;98871.84;;;9.18;100.00
9905;BME280;4991;43.566;27.820;2023-03-22T10:23:55;98876.44;;;9.17;100.00
9905;BME280;4991;43.566;27.820;2023-03-22T10:26:49;98883.91;;;9.30;100.00
9905;BME280;4991;43.566;27.820;2023-03-22T10:29:41;98882.34;;;8.82;100.00
9905;BME280;4991;43.566;27.820;2023-03-22T10:32:17;98888.69;;;8.96;100.00
9905;BME280;4991;43.566;27.820;2023-03-22T10:34:43;98873.81;;;8.70;100.00
9905;BME280;4991;43.566;27.820;2023-03-22T10:37:19;98887.03;;;8.53;100.00
9905;BME280;4991;43.566;27.820;2023-03-22T10:39:55;98883.72;;;8.56;100.00
9905;BME280;4991;43.566;27.820;2023-03-22T10:42:25;98885.72;;;8.50;100.00
9905;BME280;4991;43.566;27.820;2023-03-22T10:44:59;98879.06;;;8.61;100.00
9905;BME280;4991;43.566;27.820;2023-03-22T10:47:39;98882.66;;;8.57;100.00
9905;BME280;4991;43.566;27.820;2023-03-22T10:50:24;98878.88;;;8.76;100.00
9905;BME280;4991;43.566;27.820;2023-03-22T10:53:02;98882.72;;;8.75;100.00
9905;BME280;4991;43.566;27.820;2023-03-22T10:55:29;98886.72;;;9.01;100.00
9905;BME280;4991;43.566;27.820;2023-03-22T11:00:46;98880.00;;;8.75;100.00
9905;BME280;4991;43.566;27.820;2023-03-22T11:08:52;98876.81;;;8.68;100.00
9905;BME280;4991;43.566;27.820;2023-03-22T11:11:35;98883.31;;;8.67;100.00
9905;BME280;4991;43.566;27.820;2023-03-22T11:14:13;98885.50;;;8.70;100.00
9905;BME280;4991;43.566;27.820;2023-03-22T11:16:50;98879.81;;;8.43;100.00
9905;BME280;4991;43.566;27.820;2023-03-22T11:19:25;98879.34;;;8.36;100.00
9905;BME280;4991;43.566;27.820;2023-03-22T11:21:53;98881.06;;;8.27;100.00
9905;BME280;4991;43.566;27.820;2023-03-22T11:24:24;98879.47;;;8.50;100.00
9905;BME280;4991;43.566;27.820;2023-03-22T11:27:05;98882.75;;;8.47;100.00
9905;BME280;4991;43.566;27.820;2023-03-22T11:29:41;98885.47;;;8.47;100.00
9905;BME280;4991;43.566;27.820;2023-03-22T11:32:26;98875.81;;;8.59;100.00
9905;BME280;4991;43.566;27.820;2023-03-22T11:37:41;98872.38;;;8.54;100.00
9905;BME280;4991;43.566;27.820;2023-03-22T11:40:17;98873.09;;;8.59;100.00
9905;BME280;4991;43.566;27.820;2023-03-22T11:42:43;98861.59;;;8.67;100.00
9905;BME280;4991;43.566;27.820;2023-03-22T11:45:15;98864.66;;;8.61;100.00
9905;BME280;4991;43.566;27.820;2023-03-22T11:47:43;98867.28;;;8.71;100.00
9905;BME280;4991;43.566;27.820;2023-03-22T11:50:37;98865.19;;;8.86;100.00
9905;BME280;4991;43.566;27.820;2023-03-22T11:53:10;98860.47;;;8.73;100.00
9905;BME280;4991;43.566;27.820;2023-03-22T11:55:37;98865.56;;;8.56;100.00
9905;BME280;4991;43.566;27.820;2023-03-22T11:58:03;98864.63;;;8.66;100.00
9905;BME280;4991;43.566;27.820;2023-03-22T12:00:32;98866.38;;;8.80;100.00
9905;BME280;4991;43.566;27.820;2023-03-22T12:03:10;98870.81;;;8.71;100.00
9905;BME280;4991;43.566;27.820;2023-03-22T12:05:41;98866.78;;;8.87;100.00
9905;BME280;4991;43.566;27.820;2023-03-22T12:08:32;98858.41;;;8.84;100.00
9905;BME280;4991;43.566;27.820;2023-03-22T12:11:10;98864.19;;;8.59;100.00
9905;BME280;4991;43.566;27.820;2023-03-22T12:13:58;98861.13;;;8.65;100.00
9905;BME280;4991;43.566;27.820;2023-03-22T12:16:40;98863.25;;;8.68;100.00
9905;BME280;4991;43.566;27.820;2023-03-22T12:19:47;98862.31;;;8.54;100.00
9905;BME280;4991;43.566;27.820;2023-03-22T12:22:18;98864.19;;;8.77;100.00
9905;BME280;4991;43.566;27.820;2023-03-22T12:24:45;98853.94;;;8.74;100.00
9905;BME280;4991;43.566;27.820;2023-03-22T12:27:17;98863.19;;;8.73;100.00
9905;BME280;4991;43.566;27.820;2023-03-22T12:30:13;98865.31;;;8.76;100.00
9905;BME280;4991;43.566;27.820;2023-03-22T12:32:55;98860.72;;;8.95;100.00
9905;BME280;4991;43.566;27.820;2023-03-22T12:35:26;98857.56;;;9.07;100.00
9905;BME280;4991;43.566;27.820;2023-03-22T12:37:54;98855.66;;;9.07;100.00
9905;BME280;4991;43.566;27.820;2023-03-22T12:40:27;98851.63;;;9.05;100.00
9905;BME280;4991;43.566;27.820;2023-03-22T12:43:01;98853.25;;;9.06;100.00
9905;BME280;4991;43.566;27.820;2023-03-22T12:45:34;98847.41;;;8.94;100.00
9905;BME280;4991;43.566;27.820;2023-03-22T12:48:09;98848.84;;;8.91;100.00
9905;BME280;4991;43.566;27.820;2023-03-22T12:51:07;98852.75;;;8.62;100.00
9905;BME280;4991;43.566;27.820;2023-03-22T12:53:41;98846.38;;;8.71;100.00
9905;BME280;4991;43.566;27.820;2023-03-22T12:56:29;98849.72;;;8.40;100.00
9905;BME280;4991;43.566;27.820;2023-03-22T12:59:01;98849.50;;;8.60;100.00
9905;BME280;4991;43.566;27.820;2023-03-22T13:01:32;98856.94;;;8.49;100.00
9905;BME280;4991;43.566;27.820;2023-03-22T13:09:33;98846.84;;;8.78;100.00
9905;BME280;4991;43.566;27.820;2023-03-22T13:20:21;98840.00;;;8.57;100.00
9905;BME280;4991;43.566;27.820;2023-03-22T13:27:55;98841.00;;;8.66;100.00
9905;BME280;4991;43.566;27.820;2023-03-22T13:38:23;98837.44;;;8.89;100.00
9905;BME280;4991;43.566;27.820;2023-03-22T13:41:05;98825.91;;;8.79;100.00
9905;BME280;4991;43.566;27.820;2023-03-22T13:43:50;98833.91;;;8.89;100.00
9905;BME280;4991;43.566;27.820;2023-03-22T13:51:36;98830.63;;;8.92;100.00
9905;BME280;4991;43.566;27.820;2023-03-22T13:59:27;98829.72;;;8.78;100.00
9905;BME280;4991;43.566;27.820;2023-03-22T14:04:48;98835.97;;;8.78;100.00
9905;BME280;4991;43.566;27.820;2023-03-22T14:07:26;98833.25;;;8.78;100.00
9905;BME280;4991;43.566;27.820;2023-03-22T14:09:59;98825.22;;;8.92;100.00
9905;BME280;4991;43.566;27.820;2023-03-22T14:12:43;98827.00;;;8.78;100.00
9905;BME280;4991;43.566;27.820;2023-03-22T14:15:15;98826.22;;;8.96;100.00
9905;BME280;4991;43.566;27.820;2023-03-22T14:17:45;98829.53;;;9.11;100.00
9905;BME280;4991;43.566;27.820;2023-03-22T14:20:17;98825.69;;;8.94;100.00
9905;BME280;4991;43.566;27.820;2023-03-22T14:22:53;98825.53;;;8.85;100.00
9905;BME280;4991;43.566;27.820;2023-03-22T14:25:21;98823.69;;;8.81;100.00
9905;BME280;4991;43.566;27.820;2023-03-22T14:27:49;98821.56;;;8.78;100.00
9905;BME280;4991;43.566;27.820;2023-03-22T14:30:38;98821.56;;;8.78;100.00
9905;BME280;4991;43.566;27.820;2023-03-22T14:33:25;98823.69;;;8.81;100.00
9905;BME280;4991;43.566;27.820;2023-03-22T14:35:58;98822.09;;;8.80;100.00
9905;BME280;4991;43.566;27.820;2023-03-22T14:38:30;98827.69;;;8.88;100.00
9905;BME280;4991;43.566;27.820;2023-03-22T14:41:07;98815.06;;;8.97;100.00
9905;BME280;4991;43.566;27.820;2023-03-22T14:43:34;98828.06;;;9.00;100.00
9905;BME280;4991;43.566;27.820;2023-03-22T14:46:04;98825.78;;;9.07;100.00
9905;BME280;4991;43.566;27.820;2023-03-22T14:48:32;98829.69;;;9.20;100.00
9905;BME280;4991;43.566;27.820;2023-03-22T14:51:01;98823.97;;;9.03;100.00
9905;BME280;4991;43.566;27.820;2023-03-22T14:53:32;98826.31;;;9.09;100.00
9905;BME280;4991;43.566;27.820;2023-03-22T14:56:14;98829.97;;;9.18;100.00
9905;BME280;4991;43.566;27.820;2023-03-22T14:58:41;98816.56;;;9.08;100.00
9905;BME280;4991;43.566;27.820;2023-03-22T15:01:13;98822.47;;;9.10;100.00
9905;BME280;4991;43.566;27.820;2023-03-22T15:03:44;98820.66;;;9.25;100.00